Search for airport 
image banner adimage banner adimage banner ad
image banner ad

KAFJ - Washington County

Located in Washington, United States

ICAO - AFJ, IATA - WSG

Data provided by Airmate  

General information

Coordinates: N40°8'11" W80°17'25"
Elevation is 1184 feet MSL.
Magnetic variation is -08° East
View others Airports in Pennsylvania

Operational data

Special qualification required
Current time UTC:
Current local time:
Weather
METAR: KAFJ 092256Z AUTO 36004KT 4SM -RA BR OVC012 09/09 A2969 RMK AO2 SLP056 P0003 T00890089
View NOTAMs / SUP AIP / TFR affecting this airport [VIEW]
Communications frequencies: [VIEW]

Runways:

RWY identifierQFULength (ft)Width (ft)SurfaceLDA (ft)
0985°5004100ASPH
27265°5004100ASPH

Airport contact information

Address: Washington United States

Satellite view of KAFJ